Time;durP1;ratioP1;P1;durP2;ratioP2;P2;SDS_P1;SDS_P2;PMS_P1;PMS_P2;Temp;Humidity;BMP_temperature;BMP_pressure;BME280_temperature;BME280_humidity;BME280_pressure;Samples;Min_cycle;Max_cycle;Signal;HPM_P1;HPM_P2
2020/12/10 00:00:23;;;;;;;19.08;6.15;;;6.70;99.80;;;;;;2079684;28;20033;-70
2020/12/10 00:01:24;;;;;;;21.08;6.57;;;6.70;99.80;;;;;;2079974;28;20033;-70
2020/12/10 00:02:29;;;;;;;20.60;6.20;;;6.70;99.70;;;;;;2087446;28;20055;-69
2020/12/10 00:03:29;;;;;;;19.95;6.80;;;6.70;99.80;;;;;;2087792;28;20032;-69
2020/12/10 00:04:30;;;;;;;16.58;5.80;;;6.70;99.80;;;;;;2081825;28;20145;-70
2020/12/10 00:05:31;;;;;;;24.05;6.88;;;6.70;99.80;;;;;;2079743;28;20053;-70
2020/12/10 00:06:32;;;;;;;18.65;6.47;;;6.70;99.80;;;;;;2080332;28;20033;-69
2020/12/10 00:07:33;;;;;;;20.42;6.47;;;6.70;99.70;;;;;;2086335;28;20055;-69
2020/12/10 00:08:33;;;;;;;15.52;5.38;;;6.70;99.70;;;;;;2096068;28;20033;-70
2020/12/10 00:09:34;;;;;;;13.40;5.35;;;6.70;99.70;;;;;;2096207;28;20443;-69
2020/12/10 00:10:35;;;;;;;18.70;6.03;;;6.70;99.70;;;;;;2096605;28;20052;-69
2020/12/10 00:11:36;;;;;;;16.65;5.97;;;6.70;99.70;;;;;;2097047;28;20017;-69
2020/12/10 00:12:44;;;;;;;17.58;6.15;;;6.70;99.70;;;;;;2096889;28;20028;-69
2020/12/10 00:13:44;;;;;;;16.27;6.28;;;6.70;99.70;;;;;;2087486;28;20029;-69
2020/12/10 00:14:45;;;;;;;17.08;6.55;;;6.70;99.70;;;;;;2088634;28;20048;-69
2020/12/10 00:15:46;;;;;;;18.85;6.32;;;6.70;99.70;;;;;;2088549;28;20067;-70
2020/12/10 00:16:50;;;;;;;11.05;5.50;;;6.70;99.70;;;;;;2088748;28;20020;-69
2020/12/10 00:17:51;;;;;;;15.65;5.38;;;6.70;99.70;;;;;;2088641;28;20032;-69
2020/12/10 00:18:51;;;;;;;15.77;5.68;;;6.70;99.70;;;;;;2088442;28;20035;-69
2020/12/10 00:19:52;;;;;;;12.43;5.75;;;6.70;99.70;;;;;;2088741;28;20044;-70
2020/12/10 00:20:53;;;;;;;14.50;5.35;;;6.70;99.80;;;;;;2086995;28;20397;-69
2020/12/10 00:21:55;;;;;;;18.13;6.13;;;6.70;99.80;;;;;;2081227;28;20045;-69
2020/12/10 00:22:56;;;;;;;19.08;6.43;;;6.70;99.90;;;;;;2080422;28;20026;-69
2020/12/10 00:23:56;;;;;;;16.10;5.45;;;6.70;99.90;;;;;;2079663;28;20025;-69
2020/12/10 00:24:57;;;;;;;17.83;5.55;;;6.70;99.80;;;;;;2079856;28;20037;-70
2020/12/10 00:25:58;;;;;;;11.25;5.40;;;6.70;99.70;;;;;;2079776;28;20032;-69
2020/12/10 00:26:58;;;;;;;11.70;5.05;;;6.70;99.70;;;;;;2079689;28;20029;-70
2020/12/10 00:27:59;;;;;;;18.20;5.15;;;6.70;99.70;;;;;;2079902;28;20064;-70
2020/12/10 00:29:00;;;;;;;14.90;5.30;;;6.70;99.70;;;;;;2080043;28;20489;-70
2020/12/10 00:30:02;;;;;;;11.98;4.63;;;6.70;99.60;;;;;;2080664;28;20026;-69
2020/12/10 00:31:04;;;;;;;19.92;5.28;;;6.70;99.60;;;;;;2088387;28;20056;-70
2020/12/10 00:32:04;;;;;;;11.93;5.72;;;6.70;99.70;;;;;;2088561;28;20092;-70
2020/12/10 00:33:05;;;;;;;15.52;5.60;;;6.70;99.70;;;;;;2088604;28;20080;-69
2020/12/10 00:34:06;;;;;;;13.27;5.07;;;6.70;99.60;;;;;;2087840;28;20024;-69
2020/12/10 00:35:08;;;;;;;13.98;5.70;;;6.70;99.60;;;;;;2088197;28;20025;-70
2020/12/10 00:36:12;;;;;;;16.33;5.32;;;6.70;99.60;;;;;;2088739;28;20029;-70
2020/12/10 00:37:13;;;;;;;16.98;5.72;;;6.70;99.70;;;;;;2088577;28;20021;-69
2020/12/10 00:38:14;;;;;;;13.50;5.68;;;6.70;99.60;;;;;;2088590;28;20105;-69
2020/12/10 00:39:14;;;;;;;20.75;5.72;;;6.70;99.70;;;;;;2086233;28;20021;-69
2020/12/10 00:40:15;;;;;;;13.75;4.85;;;6.70;99.80;;;;;;2087906;28;20562;-69
2020/12/10 00:41:16;;;;;;;15.00;5.40;;;6.70;99.60;;;;;;2079527;28;20056;-71
2020/12/10 00:42:16;;;;;;;16.67;5.20;;;6.70;99.70;;;;;;2079843;28;20420;-69
2020/12/10 00:43:17;;;;;;;16.75;5.65;;;6.60;99.60;;;;;;2082663;28;20115;-69
2020/12/10 00:44:18;;;;;;;12.10;4.97;;;6.70;99.60;;;;;;2088113;28;20075;-69
2020/12/10 00:45:18;;;;;;;16.10;5.60;;;6.70;99.60;;;;;;2088563;28;20028;-69
2020/12/10 00:46:19;;;;;;;19.27;5.40;;;6.70;99.60;;;;;;2088423;28;20032;-69
2020/12/10 00:47:20;;;;;;;14.55;4.75;;;6.70;99.70;;;;;;2088707;28;20496;-69
2020/12/10 00:48:21;;;;;;;13.18;5.03;;;6.70;99.60;;;;;;2088517;28;20100;-69
2020/12/10 00:49:22;;;;;;;9.20;4.25;;;6.70;99.70;;;;;;2086237;28;20106;-69
2020/12/10 00:50:23;;;;;;;13.85;4.88;;;6.70;99.60;;;;;;2080107;28;20028;-69
2020/12/10 00:51:23;;;;;;;10.95;4.97;;;6.70;99.60;;;;;;2080305;28;20060;-69
2020/12/10 00:52:25;;;;;;;16.00;4.90;;;6.70;99.70;;;;;;2080310;28;20048;-69
2020/12/10 00:53:27;;;;;;;15.90;5.00;;;6.70;99.60;;;;;;2080291;28;20026;-70
2020/12/10 00:54:28;;;;;;;12.20;4.65;;;6.70;99.60;;;;;;2080338;28;20033;-69
2020/12/10 00:55:28;;;;;;;15.00;4.90;;;6.70;99.80;;;;;;2081671;28;20110;-69
2020/12/10 00:56:35;;;;;;;14.50;4.38;;;6.60;99.70;;;;;;2088308;28;20021;-69
2020/12/10 00:57:36;;;;;;;14.05;4.78;;;6.60;99.70;;;;;;2088481;28;20028;-69
2020/12/10 00:58:37;;;;;;;14.35;4.88;;;6.70;99.70;;;;;;2088329;28;20480;-69
2020/12/10 00:59:39;;;;;;;13.30;4.30;;;6.70;99.60;;;;;;2088477;28;20025;-69
2020/12/10 01:00:40;;;;;;;9.82;4.03;;;6.70;99.60;;;;;;2080535;28;20031;-69
2020/12/10 01:01:42;;;;;;;13.55;4.78;;;6.70;99.50;;;;;;2086094;28;20035;-70
2020/12/10 01:02:43;;;;;;;;;;;6.70;99.60;;;;;;2087910;28;20025;-69
2020/12/10 01:03:44;;;;;;;11.32;4.38;;;6.70;99.90;;;;;;2084849;28;19916;-69
2020/12/10 01:04:44;;;;;;;16.13;4.90;;;6.70;99.70;;;;;;2085077;28;20022;-69
2020/12/10 01:05:45;;;;;;;17.63;5.03;;;6.70;99.70;;;;;;2080451;28;20096;-70
2020/12/10 01:06:46;;;;;;;11.95;4.72;;;6.70;99.80;;;;;;2079228;28;20055;-69
2020/12/10 01:07:48;;;;;;;14.13;4.32;;;6.70;99.70;;;;;;2075301;28;20036;-69
2020/12/10 01:08:49;;;;;;;10.77;4.20;;;6.70;99.70;;;;;;2079243;28;20030;-69
2020/12/10 01:09:50;;;;;;;12.63;4.45;;;6.70;99.60;;;;;;2079601;28;20018;-69
2020/12/10 01:10:51;;;;;;;10.75;4.78;;;6.70;99.70;;;;;;2071311;28;20600;-69
2020/12/10 01:11:51;;;;;;;11.95;4.15;;;6.70;99.60;;;;;;2079625;28;20053;-69
2020/12/10 01:12:52;;;;;;;12.48;4.80;;;6.70;99.50;;;;;;2087612;28;20067;-70
2020/12/10 01:13:54;;;;;;;10.02;4.22;;;6.70;99.70;;;;;;2080353;28;20127;-70
2020/12/10 01:14:54;;;;;;;12.60;4.32;;;6.70;99.80;;;;;;2080364;28;20377;-70
2020/12/10 01:15:55;;;;;;;13.93;4.70;;;6.70;99.70;;;;;;2078840;28;20030;-69
2020/12/10 01:16:56;;;;;;;9.43;4.13;;;6.70;99.80;;;;;;2079487;28;20032;-70
2020/12/10 01:17:56;;;;;;;11.57;4.00;;;6.80;99.80;;;;;;2079528;28;20041;-70
2020/12/10 01:18:57;;;;;;;8.25;3.95;;;6.80;99.70;;;;;;2080221;28;20172;-69
2020/12/10 01:19:58;;;;;;;10.55;4.28;;;6.80;99.80;;;;;;2086318;28;20500;-69
2020/12/10 01:20:58;;;;;;;10.77;4.05;;;6.80;99.60;;;;;;2088524;28;20056;-70
2020/12/10 01:21:59;;;;;;;10.02;3.40;;;6.80;99.60;;;;;;2089324;28;20031;-69
2020/12/10 01:23:00;;;;;;;11.73;4.00;;;6.80;99.60;;;;;;2089396;28;20047;-69
2020/12/10 01:24:02;;;;;;;8.77;3.38;;;6.80;99.80;;;;;;2088091;28;20029;-70
2020/12/10 01:25:05;;;;;;;9.60;3.83;;;6.90;99.70;;;;;;2089407;28;20112;-70
2020/12/10 01:26:10;;;;;;;10.35;3.60;;;6.90;99.70;;;;;;2089140;28;20025;-70
2020/12/10 01:27:10;;;;;;;13.05;3.78;;;6.90;99.70;;;;;;2089340;28;20055;-69
2020/12/10 01:28:11;;;;;;;12.05;3.60;;;6.90;99.70;;;;;;2089090;28;20086;-69
2020/12/10 01:29:12;;;;;;;11.32;3.83;;;6.90;99.70;;;;;;2088813;28;20059;-69
2020/12/10 01:30:12;;;;;;;7.88;3.50;;;6.90;99.80;;;;;;2089027;28;20074;-69
2020/12/10 01:31:13;;;;;;;10.00;3.60;;;6.90;99.70;;;;;;2088283;28;20104;-69
2020/12/10 01:32:15;;;;;;;12.35;3.28;;;6.90;99.70;;;;;;2089661;28;20064;-69
2020/12/10 01:33:16;;;;;;;12.80;4.15;;;6.90;99.70;;;;;;2089902;28;20488;-70
2020/12/10 01:34:18;;;;;;;8.68;2.97;;;6.90;99.70;;;;;;2089894;28;20021;-70
2020/12/10 01:35:19;;;;;;;9.15;3.10;;;7.00;99.60;;;;;;2089950;28;20025;-69
2020/12/10 01:36:21;;;;;;;9.50;3.45;;;7.00;99.50;;;;;;2089862;28;20021;-69
2020/12/10 01:37:22;;;;;;;9.50;4.38;;;7.00;99.60;;;;;;2089771;28;20040;-69
2020/12/10 01:38:23;;;;;;;12.05;3.15;;;7.00;99.60;;;;;;2087660;28;20021;-69
2020/12/10 01:39:23;;;;;;;7.68;3.13;;;7.00;99.80;;;;;;2081232;28;20029;-69
2020/12/10 01:40:24;;;;;;;9.05;3.13;;;7.00;99.90;;;;;;2081456;28;20044;-71
2020/12/10 01:41:33;;;;;;;7.70;3.28;;;7.00;99.80;;;;;;2080708;28;20072;-69
2020/12/10 01:42:36;;;;;;;7.40;2.67;;;7.00;99.80;;;;;;2081028;28;20103;-69
2020/12/10 01:43:37;;;;;;;12.18;3.28;;;7.00;99.80;;;;;;2081687;28;20526;-70
2020/12/10 01:44:38;;;;;;;7.53;3.05;;;7.00;99.80;;;;;;2080733;28;20525;-69
2020/12/10 01:45:38;;;;;;;9.63;3.30;;;7.00;99.70;;;;;;2080866;28;20029;-69
2020/12/10 01:46:41;;;;;;;6.38;2.83;;;7.00;99.60;;;;;;2088184;28;20424;-69
2020/12/10 01:47:42;;;;;;;6.30;2.55;;;7.00;99.50;;;;;;2081385;28;20025;-70
2020/12/10 01:48:43;;;;;;;6.32;2.85;;;7.10;99.60;;;;;;2081223;28;20509;-70
2020/12/10 01:49:44;;;;;;;6.80;2.75;;;7.10;99.60;;;;;;2081568;28;20032;-69
2020/12/10 01:50:44;;;;;;;8.70;2.63;;;7.10;99.60;;;;;;2081485;28;20417;-69
2020/12/10 01:51:45;;;;;;;7.07;2.72;;;7.10;99.60;;;;;;2081545;28;20021;-70
2020/12/10 01:52:50;;;;;;;6.70;2.75;;;7.10;99.70;;;;;;2080851;28;20024;-69
2020/12/10 01:53:51;;;;;;;4.47;2.55;;;7.10;99.70;;;;;;2080882;28;20022;-69
2020/12/10 01:54:51;;;;;;;8.40;3.15;;;7.10;99.70;;;;;;2080970;28;20377;-69
2020/12/10 01:55:52;;;;;;;8.57;2.92;;;7.10;99.80;;;;;;2085173;28;20021;-69
2020/12/10 01:56:54;;;;;;;7.68;2.90;;;7.10;99.70;;;;;;2088986;28;20017;-70
2020/12/10 01:57:55;;;;;;;10.25;3.17;;;7.10;99.70;;;;;;2081643;28;20389;-69
2020/12/10 01:58:57;;;;;;;9.73;2.75;;;7.10;99.60;;;;;;2080387;28;20061;-70
2020/12/10 02:00:00;;;;;;;8.23;2.70;;;7.10;99.70;;;;;;2080094;28;20489;-70
2020/12/10 02:01:01;;;;;;;5.45;2.63;;;7.10;99.70;;;;;;2081030;28;20448;-70
2020/12/10 02:02:01;;;;;;;7.72;2.83;;;7.10;99.70;;;;;;2079542;28;20041;-69
2020/12/10 02:03:02;;;;;;;7.13;2.90;;;7.10;99.80;;;;;;2080481;28;20104;-71
2020/12/10 02:04:03;;;;;;;7.15;2.72;;;7.10;99.80;;;;;;2083989;28;20078;-70
2020/12/10 02:05:04;;;;;;;10.25;2.92;;;7.00;99.80;;;;;;2088427;28;20100;-69
2020/12/10 02:06:04;;;;;;;9.43;3.00;;;7.10;99.90;;;;;;2085931;28;20087;-69
2020/12/10 02:07:06;;;;;;;6.72;2.97;;;7.10;99.80;;;;;;2080726;28;20032;-69
2020/12/10 02:08:07;;;;;;;10.52;3.58;;;7.10;99.80;;;;;;2097140;28;20110;-70
2020/12/10 02:09:07;;;;;;;9.30;3.22;;;7.10;99.80;;;;;;2096720;28;20036;-69
2020/12/10 02:10:08;;;;;;;7.35;3.17;;;7.10;99.80;;;;;;2097070;28;20021;-69
2020/12/10 02:11:10;;;;;;;5.85;3.15;;;7.10;99.90;;;;;;2097802;28;20023;-71
2020/12/10 02:12:11;;;;;;;5.93;2.88;;;7.10;99.90;;;;;;2088377;28;20029;-69
2020/12/10 02:13:11;;;;;;;8.30;3.00;;;7.10;99.90;;;;;;2088975;28;20056;-69
2020/12/10 02:14:12;;;;;;;9.55;2.92;;;7.00;99.90;;;;;;2081118;28;20017;-69
2020/12/10 02:15:15;;;;;;;9.13;2.95;;;7.10;99.90;;;;;;2081313;28;20018;-69
2020/12/10 02:16:18;;;;;;;8.25;3.25;;;7.10;99.90;;;;;;2080580;28;20026;-70
2020/12/10 02:17:19;;;;;;;6.50;2.78;;;7.00;99.90;;;;;;2084665;28;20017;-69
2020/12/10 02:18:19;;;;;;;7.22;2.92;;;7.00;99.90;;;;;;2083322;28;20036;-70
2020/12/10 02:19:20;;;;;;;6.90;2.65;;;7.00;99.90;;;;;;2085092;28;20102;-70
2020/12/10 02:20:22;;;;;;;10.98;2.55;;;7.00;99.90;;;;;;2088633;28;20021;-69
2020/12/10 02:21:22;;;;;;;6.22;3.05;;;7.00;99.90;;;;;;2081282;28;20405;-70
2020/12/10 02:22:23;;;;;;;7.75;2.80;;;7.10;99.90;;;;;;2080723;28;20033;-69
2020/12/10 02:23:24;;;;;;;4.00;2.47;;;7.10;99.90;;;;;;2080682;28;20067;-69
2020/12/10 02:24:25;;;;;;;8.57;2.88;;;7.10;99.90;;;;;;2080864;28;20033;-71
2020/12/10 02:25:26;;;;;;;4.78;2.80;;;7.10;99.90;;;;;;2088359;28;20033;-69
2020/12/10 02:26:27;;;;;;;5.93;2.38;;;7.10;99.90;;;;;;2080501;28;20421;-70
2020/12/10 02:27:27;;;;;;;6.07;2.60;;;7.10;99.90;;;;;;2080529;28;20044;-69
2020/12/10 02:28:28;;;;;;;4.07;2.22;;;7.10;99.90;;;;;;2080984;28;20290;-70
2020/12/10 02:29:29;;;;;;;6.53;2.50;;;7.20;99.90;;;;;;2080305;28;20047;-69
2020/12/10 02:30:30;;;;;;;4.55;2.08;;;7.20;99.90;;;;;;2080631;28;20030;-70
2020/12/10 02:31:31;;;;;;;5.22;2.65;;;7.20;99.80;;;;;;2081191;28;20464;-70
2020/12/10 02:32:32;;;;;;;6.33;2.47;;;7.20;99.70;;;;;;2080184;28;20025;-69
2020/12/10 02:33:32;;;;;;;3.65;1.98;;;7.30;99.60;;;;;;2080133;28;20290;-69
2020/12/10 02:34:33;;;;;;;5.70;2.10;;;7.30;99.60;;;;;;2081107;28;20028;-69
2020/12/10 02:35:36;;;;;;;4.78;2.28;;;7.30;99.60;;;;;;2081221;28;20044;-69
2020/12/10 02:36:37;;;;;;;5.70;2.20;;;7.30;99.60;;;;;;2081085;28;20014;-69
2020/12/10 02:37:38;;;;;;;5.28;2.00;;;7.30;99.60;;;;;;2080472;28;20033;-70
2020/12/10 02:38:39;;;;;;;4.65;2.00;;;7.30;99.60;;;;;;2080403;28;20034;-70
2020/12/10 02:39:40;;;;;;;1.85;1.40;;;7.20;99.70;;;;;;2080805;28;20445;-70
2020/12/10 02:40:44;;;;;;;4.10;2.45;;;7.30;99.70;;;;;;2088362;28;20021;-70
2020/12/10 02:41:47;;;;;;;3.35;2.10;;;7.30;99.70;;;;;;2088020;28;20073;-69
2020/12/10 02:42:47;;;;;;;4.18;1.73;;;7.30;99.60;;;;;;2081137;28;20025;-70
2020/12/10 02:43:49;;;;;;;5.22;1.98;;;7.30;99.60;;;;;;2081110;28;20030;-70
2020/12/10 02:44:49;;;;;;;2.88;1.58;;;7.30;99.60;;;;;;2080906;28;20030;-69
2020/12/10 02:45:50;;;;;;;4.72;2.08;;;7.30;99.50;;;;;;2080193;28;20025;-69
2020/12/10 02:46:51;;;;;;;4.22;2.33;;;7.40;99.50;;;;;;2080164;28;20044;-70
2020/12/10 02:47:52;;;;;;;5.72;1.70;;;7.40;99.50;;;;;;2080391;28;20017;-69
2020/12/10 02:48:53;;;;;;;4.22;1.95;;;7.40;99.60;;;;;;2079788;28;20037;-69
2020/12/10 02:49:54;;;;;;;4.90;2.00;;;7.30;99.60;;;;;;2080252;28;20033;-69
2020/12/10 02:51:00;;;;;;;6.90;2.10;;;7.40;99.60;;;;;;2088421;28;20025;-71
2020/12/10 02:52:01;;;;;;;5.85;2.40;;;7.30;99.60;;;;;;2087877;28;20436;-72
2020/12/10 02:53:01;;;;;;;2.78;2.00;;;7.30;99.60;;;;;;2080430;28;20029;-70
2020/12/10 02:54:02;;;;;;;6.03;2.25;;;7.30;99.70;;;;;;2088191;28;20016;-69
2020/12/10 02:55:04;;;;;;;4.28;2.28;;;7.30;99.70;;;;;;2081336;28;20060;-72
2020/12/10 02:56:10;;;;;;;4.90;2.20;;;7.30;99.80;;;;;;2080908;28;20104;-69
2020/12/10 02:57:10;;;;;;;5.38;2.42;;;7.30;99.80;;;;;;2080978;28;20101;-69
2020/12/10 02:58:11;;;;;;;6.93;2.17;;;7.30;99.80;;;;;;2080235;28;20017;-70
2020/12/10 02:59:12;;;;;;;4.55;2.20;;;7.30;99.90;;;;;;2080029;28;20030;-71
2020/12/10 03:00:13;;;;;;;3.78;2.20;;;7.30;99.90;;;;;;2088674;28;20108;-69
2020/12/10 03:01:14;;;;;;;5.10;2.17;;;7.30;99.90;;;;;;2080967;28;20029;-70
2020/12/10 03:02:14;;;;;;;3.92;2.03;;;7.30;99.90;;;;;;2080970;28;20024;-69
2020/12/10 03:03:16;;;;;;;5.25;2.17;;;7.30;99.90;;;;;;2085813;28;20054;-69
2020/12/10 03:04:17;;;;;;;4.90;2.00;;;7.30;99.90;;;;;;2089179;28;20123;-69
2020/12/10 03:05:17;;;;;;;3.42;2.20;;;7.30;99.90;;;;;;2086667;28;20164;-70
2020/12/10 03:06:18;;;;;;;3.97;2.15;;;7.30;99.90;;;;;;2088067;28;20123;-70
2020/12/10 03:07:19;;;;;;;4.97;2.00;;;7.30;99.90;;;;;;2090047;28;20086;-70
2020/12/10 03:08:19;;;;;;;2.25;1.75;;;7.30;99.90;;;;;;2096497;28;20093;-70
2020/12/10 03:09:20;;;;;;;6.55;2.20;;;7.30;99.90;;;;;;2096643;28;20070;-69
2020/12/10 03:10:21;;;;;;;4.50;1.90;;;7.30;99.90;;;;;;2097340;28;20029;-70
2020/12/10 03:11:21;;;;;;;5.63;2.13;;;7.30;99.90;;;;;;2095933;28;20017;-69
2020/12/10 03:12:22;;;;;;;5.60;2.00;;;7.30;99.90;;;;;;2080450;28;20417;-70
2020/12/10 03:13:23;;;;;;;2.92;1.67;;;7.30;99.90;;;;;;2080662;28;20025;-69
2020/12/10 03:14:23;;;;;;;5.88;2.15;;;7.30;99.90;;;;;;2080560;28;20057;-69
2020/12/10 03:15:25;;;;;;;4.28;2.20;;;7.30;99.90;;;;;;2080876;28;20036;-70
2020/12/10 03:16:25;;;;;;;6.05;2.38;;;7.30;99.90;;;;;;2080657;28;20026;-69
2020/12/10 03:17:27;;;;;;;5.28;2.10;;;7.30;99.90;;;;;;2080837;28;20367;-69
2020/12/10 03:18:27;;;;;;;2.13;1.40;;;7.30;99.90;;;;;;2080901;28;20026;-69
2020/12/10 03:19:28;;;;;;;3.50;2.05;;;7.30;99.90;;;;;;2080500;28;20258;-69
2020/12/10 03:20:29;;;;;;;4.90;1.92;;;7.30;99.90;;;;;;2079403;28;20409;-70
2020/12/10 03:21:29;;;;;;;6.60;2.17;;;7.30;99.90;;;;;;2079385;28;20029;-69
2020/12/10 03:22:30;;;;;;;5.05;2.15;;;7.30;99.90;;;;;;2088393;28;20039;-70
2020/12/10 03:23:31;;;;;;;3.72;1.85;;;7.30;99.90;;;;;;2088092;28;20131;-69
2020/12/10 03:24:31;;;;;;;4.65;1.88;;;7.30;99.90;;;;;;2088200;28;20053;-69
2020/12/10 03:25:32;;;;;;;7.00;2.30;;;7.30;99.90;;;;;;2088173;28;20059;-70
2020/12/10 03:26:33;;;;;;;6.13;2.10;;;7.30;99.90;;;;;;2088339;28;20029;-70
2020/12/10 03:27:34;;;;;;;5.03;2.53;;;7.30;99.90;;;;;;2088444;28;20129;-70
2020/12/10 03:28:34;;;;;;;3.63;1.98;;;7.30;99.90;;;;;;2088757;28;20905;-70
2020/12/10 03:29:35;;;;;;;4.78;2.00;;;7.30;99.90;;;;;;2083669;28;20106;-70
2020/12/10 03:30:36;;;;;;;6.88;2.30;;;7.30;99.90;;;;;;2084460;28;20033;-70
2020/12/10 03:31:37;;;;;;;3.78;2.20;;;7.30;99.90;;;;;;2088172;28;20029;-69
2020/12/10 03:32:37;;;;;;;5.50;2.00;;;7.30;99.90;;;;;;2088280;28;20041;-70
2020/12/10 03:33:38;;;;;;;5.28;1.95;;;7.30;99.90;;;;;;2087080;28;20029;-70
2020/12/10 03:34:39;;;;;;;4.30;1.70;;;7.30;99.90;;;;;;2088315;28;20499;-70
2020/12/10 03:35:39;;;;;;;3.45;1.80;;;7.30;99.90;;;;;;2088236;28;20071;-69
2020/12/10 03:37:00;;;;;;;4.57;1.98;;;7.30;99.90;;;;;;2088250;28;20025;-70
2020/12/10 03:38:00;;;;;;;5.03;1.90;;;7.30;99.90;;;;;;2080884;28;20025;-70
2020/12/10 03:39:01;;;;;;;3.58;1.80;;;7.30;99.90;;;;;;2080297;28;20022;-70
2020/12/10 03:40:03;;;;;;;4.35;1.90;;;7.30;99.90;;;;;;2079831;28;20108;-70
2020/12/10 03:41:06;;;;;;;3.72;1.73;;;7.30;99.90;;;;;;2079911;28;20025;-70
2020/12/10 03:42:06;;;;;;;5.40;1.88;;;7.30;99.90;;;;;;2080127;28;20056;-70
2020/12/10 03:43:07;;;;;;;5.57;2.17;;;7.30;99.90;;;;;;2079870;28;20041;-70
2020/12/10 03:44:08;;;;;;;4.10;1.80;;;7.30;99.90;;;;;;2085172;28;20036;-70
2020/12/10 03:45:09;;;;;;;2.55;1.52;;;7.30;99.90;;;;;;2088100;28;20052;-70
2020/12/10 03:46:09;;;;;;;2.97;1.73;;;7.30;99.90;;;;;;2088211;28;20404;-70
2020/12/10 03:47:10;;;;;;;3.67;2.00;;;7.30;99.90;;;;;;2083993;28;20112;-70
2020/12/10 03:48:11;;;;;;;3.88;1.92;;;7.30;99.90;;;;;;2082418;28;20029;-71
2020/12/10 03:49:12;;;;;;;2.75;1.83;;;7.30;99.90;;;;;;2087615;28;20554;-70
2020/12/10 03:50:13;;;;;;;4.50;1.77;;;7.30;99.90;;;;;;2088139;28;20029;-70
2020/12/10 03:51:13;;;;;;;3.58;1.95;;;7.30;99.90;;;;;;2088086;28;20345;-70
2020/12/10 03:52:14;;;;;;;4.78;1.77;;;7.30;99.90;;;;;;2082424;28;20021;-70
2020/12/10 03:53:15;;;;;;;4.43;2.03;;;7.30;99.90;;;;;;2087873;28;20025;-70
2020/12/10 03:54:16;;;;;;;4.00;2.17;;;7.30;99.90;;;;;;2079816;28;20022;-70
2020/12/10 03:55:17;;;;;;;3.25;1.95;;;7.30;99.90;;;;;;2079916;28;20021;-70
2020/12/10 03:56:17;;;;;;;4.80;2.00;;;7.30;99.90;;;;;;2088154;28;20475;-69
2020/12/10 03:57:18;;;;;;;4.68;2.25;;;7.30;99.90;;;;;;2088059;28;20541;-69
2020/12/10 03:58:19;;;;;;;3.38;1.90;;;7.30;99.90;;;;;;2086960;28;20021;-70
2020/12/10 03:59:19;;;;;;;5.55;2.22;;;7.30;99.90;;;;;;2079782;28;20020;-69
2020/12/10 04:00:21;;;;;;;3.33;1.80;;;7.30;99.90;;;;;;2080451;28;20021;-70
2020/12/10 04:01:21;;;;;;;3.63;1.85;;;7.30;99.90;;;;;;2080500;28;20025;-69
2020/12/10 04:02:22;;;;;;;3.03;1.73;;;7.30;99.90;;;;;;2079284;28;20075;-69
2020/12/10 04:03:23;;;;;;;4.47;1.85;;;7.30;99.90;;;;;;2079176;28;20032;-69
2020/12/10 04:04:23;;;;;;;3.10;1.55;;;7.20;99.90;;;;;;2087320;28;20025;-70
2020/12/10 04:05:24;;;;;;;2.10;1.70;;;7.30;99.90;;;;;;2079934;28;20052;-70
2020/12/10 04:06:25;;;;;;;3.42;1.95;;;7.30;99.90;;;;;;2086231;28;20539;-70
2020/12/10 04:07:26;;;;;;;4.38;2.10;;;7.30;99.90;;;;;;2087854;28;20117;-70
2020/12/10 04:08:29;;;;;;;3.35;1.85;;;7.30;99.90;;;;;;2088687;28;20048;-70
2020/12/10 04:09:33;;;;;;;3.08;1.92;;;7.20;99.90;;;;;;2087859;28;20066;-70
2020/12/10 04:10:34;;;;;;;5.20;1.90;;;7.30;99.90;;;;;;2080197;28;20116;-70
2020/12/10 04:11:34;;;;;;;2.50;2.00;;;7.30;99.90;;;;;;2087870;28;20132;-69
2020/12/10 04:12:35;;;;;;;2.85;1.83;;;7.30;99.90;;;;;;2087861;28;20017;-70
2020/12/10 04:13:36;;;;;;;4.50;1.92;;;7.30;99.90;;;;;;2088009;28;20029;-70
2020/12/10 04:14:37;;;;;;;5.57;1.67;;;7.30;99.90;;;;;;2087981;28;20488;-70
2020/12/10 04:15:37;;;;;;;3.25;2.20;;;7.30;99.90;;;;;;2087852;28;20512;-70
2020/12/10 04:16:38;;;;;;;4.18;1.60;;;7.20;99.90;;;;;;2086430;28;20025;-70
2020/12/10 04:17:39;;;;;;;3.35;2.00;;;7.30;99.90;;;;;;2087604;28;20029;-70
2020/12/10 04:18:41;;;;;;;4.55;2.08;;;7.20;99.90;;;;;;2087659;28;20025;-70
2020/12/10 04:19:42;;;;;;;4.25;1.80;;;7.20;99.90;;;;;;2087860;28;20024;-70
2020/12/10 04:20:42;;;;;;;3.92;1.80;;;7.20;99.90;;;;;;2079748;28;20025;-69
2020/12/10 04:21:43;;;;;;;3.92;2.30;;;7.20;99.90;;;;;;2087994;28;20032;-71
2020/12/10 04:22:44;;;;;;;3.60;2.10;;;7.20;99.90;;;;;;2087952;28;20120;-70
2020/12/10 04:23:44;;;;;;;4.63;2.10;;;7.20;99.90;;;;;;2087587;28;20124;-70
2020/12/10 04:24:45;;;;;;;4.35;2.10;;;7.20;99.90;;;;;;2080427;28;20030;-69
2020/12/10 04:25:51;;;;;;;4.25;1.90;;;7.30;99.90;;;;;;2085837;28;20032;-69
2020/12/10 04:26:52;;;;;;;2.55;2.35;;;7.20;99.90;;;;;;2087096;28;20527;-69
2020/12/10 04:27:52;;;;;;;4.07;1.90;;;7.20;99.90;;;;;;2080247;28;20029;-69
2020/12/10 04:28:53;;;;;;;2.40;1.80;;;7.20;99.90;;;;;;2080192;28;20385;-69
2020/12/10 04:29:54;;;;;;;4.85;2.33;;;7.20;99.90;;;;;;2080337;28;20727;-70
2020/12/10 04:30:55;;;;;;;4.13;2.10;;;7.20;99.90;;;;;;2080333;28;20098;-70
2020/12/10 04:31:56;;;;;;;2.63;1.83;;;7.20;99.90;;;;;;2080197;28;20477;-70
2020/12/10 04:32:57;;;;;;;4.53;2.00;;;7.20;99.90;;;;;;2086465;28;20886;-69
2020/12/10 04:33:58;;;;;;;3.90;1.92;;;7.20;99.90;;;;;;2088185;28;20037;-69
2020/12/10 04:34:59;;;;;;;3.65;1.90;;;7.20;99.90;;;;;;2088372;28;20534;-70
2020/12/10 04:35:59;;;;;;;3.13;1.95;;;7.20;99.90;;;;;;2088355;28;20028;-70
2020/12/10 04:37:00;;;;;;;4.78;1.98;;;7.20;99.90;;;;;;2078510;28;20048;-70
2020/12/10 04:38:01;;;;;;;2.65;2.10;;;7.20;99.90;;;;;;2079394;28;20465;-70
2020/12/10 04:39:02;;;;;;;2.70;1.70;;;7.20;99.90;;;;;;2079830;28;20029;-70
2020/12/10 04:40:04;;;;;;;3.28;1.85;;;7.20;99.90;;;;;;2080320;28;20049;-70
2020/12/10 04:41:07;;;;;;;3.03;1.60;;;7.20;99.90;;;;;;2080076;28;20091;-70
2020/12/10 04:42:10;;;;;;;2.53;1.70;;;7.20;99.90;;;;;;2080450;28;20503;-70
2020/12/10 04:43:13;;;;;;;3.28;2.00;;;7.20;99.90;;;;;;2078921;28;20436;-69
2020/12/10 04:44:14;;;;;;;2.80;1.75;;;7.20;99.90;;;;;;2071626;28;20053;-70
2020/12/10 04:45:14;;;;;;;2.70;1.70;;;7.20;99.90;;;;;;2071670;28;20053;-70
2020/12/10 04:46:18;;;;;;;2.70;1.60;;;7.20;99.90;;;;;;2087856;28;20045;-71
2020/12/10 04:47:19;;;;;;;2.22;1.48;;;7.20;99.90;;;;;;2080328;28;20097;-69
2020/12/10 04:48:21;;;;;;;3.78;1.70;;;7.20;99.90;;;;;;2080344;28;20417;-70
2020/12/10 04:49:22;;;;;;;3.10;1.58;;;7.20;99.90;;;;;;2079105;28;20056;-70
2020/12/10 04:50:25;;;;;;;2.78;1.60;;;7.20;99.90;;;;;;2070947;28;20042;-69
2020/12/10 04:51:29;;;;;;;4.40;1.70;;;7.20;99.90;;;;;;2086739;28;20075;-70
2020/12/10 04:52:32;;;;;;;3.90;1.70;;;7.20;99.90;;;;;;2087611;28;20033;-70
2020/12/10 04:53:33;;;;;;;2.95;1.67;;;7.20;99.90;;;;;;2087808;28;20025;-70
2020/12/10 04:54:34;;;;;;;2.65;1.33;;;7.20;99.90;;;;;;2087923;28;20096;-69
2020/12/10 04:55:35;;;;;;;3.30;1.65;;;7.20;99.90;;;;;;2087784;28;20028;-69
2020/12/10 04:56:36;;;;;;;2.65;1.40;;;7.20;99.90;;;;;;2088652;28;20566;-69
2020/12/10 04:57:40;;;;;;;3.00;1.80;;;7.20;99.90;;;;;;2090165;28;20054;-70
2020/12/10 04:58:42;;;;;;;3.63;1.73;;;7.20;99.90;;;;;;2089237;28;20028;-69
2020/12/10 04:59:43;;;;;;;2.28;1.23;;;7.20;99.90;;;;;;2080170;28;20033;-70
2020/12/10 05:00:44;;;;;;;4.53;1.60;;;7.30;99.90;;;;;;2089256;28;20033;-70
2020/12/10 05:01:44;;;;;;;2.80;1.52;;;7.20;99.90;;;;;;2090006;28;20035;-69
2020/12/10 05:02:46;;;;;;;3.10;1.73;;;7.30;99.90;;;;;;2090102;28;20107;-70
2020/12/10 05:03:46;;;;;;;2.35;1.45;;;7.20;99.90;;;;;;2090077;28;20078;-69
2020/12/10 05:04:47;;;;;;;3.15;1.70;;;7.30;99.90;;;;;;2089968;28;20615;-69
2020/12/10 05:05:48;;;;;;;2.38;1.30;;;7.20;99.90;;;;;;2090226;28;20029;-70
2020/12/10 05:06:50;;;;;;;4.05;1.60;;;7.30;99.90;;;;;;2086885;28;20037;-70
2020/12/10 05:07:52;;;;;;;2.25;1.50;;;7.30;99.90;;;;;;2084845;28;20017;-69
2020/12/10 05:09:05;;;;;;;;;;;7.30;99.90;;;;;;2088128;28;20071;-69
2020/12/10 05:10:06;;;;;;;3.30;1.45;;;7.30;99.90;;;;;;2082318;28;19905;-69
2020/12/10 05:11:08;;;;;;;2.63;1.40;;;7.30;99.90;;;;;;2081187;28;20096;-70
2020/12/10 05:12:18;;;;;;;1.45;1.25;;;7.30;99.90;;;;;;2081873;28;20665;-70
2020/12/10 05:13:19;;;;;;;3.30;1.50;;;7.30;99.90;;;;;;2083464;28;20033;-70
2020/12/10 05:14:19;;;;;;;1.75;1.05;;;7.30;99.90;;;;;;2080826;28;20104;-71
2020/12/10 05:15:34;;;;;;;2.40;1.48;;;7.30;99.90;;;;;;2081574;28;20061;-71
2020/12/10 05:16:35;;;;;;;2.35;1.35;;;7.30;99.90;;;;;;2081088;28;20091;-70
2020/12/10 05:17:35;;;;;;;2.05;1.23;;;7.30;99.90;;;;;;2081052;28;20509;-70
2020/12/10 05:18:36;;;;;;;2.95;1.42;;;7.30;99.90;;;;;;2081513;28;20147;-70
2020/12/10 05:19:37;;;;;;;1.20;1.10;;;7.30;99.90;;;;;;2081570;28;20451;-70
2020/12/10 05:20:43;;;;;;;1.50;1.30;;;7.30;99.90;;;;;;2081735;28;20057;-70
2020/12/10 05:22:02;;;;;;;1.98;1.33;;;7.30;99.90;;;;;;2080963;28;20033;-70
2020/12/10 05:23:03;;;;;;;3.83;1.52;;;7.30;99.90;;;;;;2085309;28;20052;-69